LPPR/OPO METAR and TAF weather

Enter ICAO airport designator
Station Type Date Time Source
LPPR METAR 2020/09/21 09:30 UTC NOAA

LPPR 210930Z 12004KT 060V160 9999 FEW009 SCT013 BKN025 20/17 Q1020


Station Type Date Time Source
LPPR Decoded METAR 2020/09/21 09:30 UTC NOAA

Porto / Pedras Rubras, Portugal (LPPR) 41-14N 008-41W 77M
Sep 21, 2020 - 05:30 AM EDT / 2020.09.21 0930 UTC
Wind: from the ESE (120 degrees) at 5 MPH (4 KT) (direction variable):0
Visibility: greater than 7 mile(s):0
Sky conditions: mostly cloudy
Temperature: 68 F (20 C)
Dew Point: 62 F (17 C)
Relative Humidity: 82%
Pressure (altimeter): 30.12 in. Hg (1020 hPa)
ob: LPPR 210930Z 12004KT 060V160 9999 FEW009 SCT013 BKN025 20/17 Q1020
cycle: 9

Station Type Date Time Source
LPPR TAF 2020/09/21 06:18 UTC NOAA

TAF LPPR 210500Z 2106/2206 VRB02KT 9999 SCT006 BKN015 PROB30
TEMPO 2106/2108 5000 BR SCT004 BKN008
BECMG 2108/2111 24007KT SCT020
BECMG 2121/2124 VRB02KT BKN015
BECMG 2203/2206 6000 -RA SCT006 BKN012

Example: see airport list